createdAt,value
2022-12-31T00:04:11.117Z,2.91
2022-12-31T00:11:11.551Z,3.06
2022-12-31T00:24:05.863Z,3.33
2022-12-31T00:31:21.704Z,3.92
2022-12-31T00:39:31.911Z,3.48
2022-12-31T01:07:14.725Z,3.62
2022-12-31T01:34:37.933Z,4.80
2022-12-31T01:37:50.173Z,4.66
2022-12-31T01:41:00.248Z,4.59
2022-12-31T01:44:55.301Z,4.92
2022-12-31T01:48:06.282Z,5.08
2022-12-31T01:51:14.189Z,5.32
2022-12-31T01:54:28.819Z,5.39
2022-12-31T01:57:39.489Z,5.39
2022-12-31T02:00:50.449Z,5.39
2022-12-31T02:04:02.235Z,5.34
2022-12-31T02:07:12.211Z,5.36
2022-12-31T02:10:23.968Z,5.80
2022-12-31T02:13:30.391Z,5.77
2022-12-31T02:16:55.287Z,5.76
2022-12-31T02:20:49.063Z,5.56
2022-12-31T02:28:07.458Z,6.14
2022-12-31T02:31:28.068Z,5.74
2022-12-31T02:34:42.820Z,6.22
2022-12-31T02:38:00.057Z,6.04
2022-12-31T02:41:07.441Z,6.07
2022-12-31T02:44:27.762Z,6.07
2022-12-31T02:47:59.613Z,6.38
2022-12-31T02:51:31.148Z,6.37
2022-12-31T02:54:55.760Z,6.31
2022-12-31T02:58:17.029Z,6.30
2022-12-31T03:01:48.805Z,6.40
2022-12-31T03:04:59.973Z,6.22
2022-12-31T03:08:06.743Z,6.39
2022-12-31T03:11:32.600Z,6.36
2022-12-31T03:14:36.776Z,6.38
2022-12-31T03:17:42.667Z,6.45
2022-12-31T03:21:07.127Z,6.57
2022-12-31T03:24:28.003Z,6.62
2022-12-31T03:27:34.862Z,6.69
2022-12-31T03:30:43.919Z,6.74
2022-12-31T03:33:53.728Z,6.80
2022-12-31T03:37:02.224Z,6.87
2022-12-31T03:40:23.129Z,6.44
2022-12-31T03:43:29.892Z,6.79
2022-12-31T03:46:36.749Z,6.66
2022-12-31T03:49:42.576Z,6.56
2022-12-31T03:52:51.897Z,6.72
2022-12-31T03:55:58.743Z,6.75
2022-12-31T03:59:05.704Z,6.60
2022-12-31T04:02:11.760Z,6.75
2022-12-31T04:05:20.611Z,6.50
2022-12-31T04:08:29.566Z,6.71
2022-12-31T04:11:36.509Z,6.60
2022-12-31T04:14:42.654Z,6.36
2022-12-31T04:17:52.715Z,6.42
2022-12-31T04:21:04.719Z,6.70
2022-12-31T04:24:15.338Z,6.68
2022-12-31T04:31:37.387Z,7.06
2022-12-31T04:34:44.276Z,6.54
2022-12-31T04:37:50.870Z,6.79
2022-12-31T04:41:14.128Z,6.84
2022-12-31T04:44:21.150Z,7.13
2022-12-31T04:47:31.262Z,7.18
2022-12-31T04:50:38.174Z,6.76
2022-12-31T04:53:46.031Z,7.11
2022-12-31T04:56:58.741Z,7.04
2022-12-31T05:00:06.178Z,6.83
2022-12-31T05:03:12.429Z,7.04
2022-12-31T05:06:32.320Z,7.06
2022-12-31T05:09:43.751Z,6.88
2022-12-31T05:12:57.462Z,6.99
2022-12-31T05:16:04.740Z,7.10
2022-12-31T05:19:23.433Z,7.36
2022-12-31T05:22:52.554Z,7.37
2022-12-31T05:26:00.186Z,7.47
2022-12-31T05:29:10.740Z,7.48
2022-12-31T05:32:17.882Z,7.42
2022-12-31T05:35:40.961Z,7.13
2022-12-31T05:38:59.303Z,7.08
2022-12-31T05:42:14.020Z,7.42
2022-12-31T05:49:30.080Z,7.15
2022-12-31T05:52:47.809Z,7.24
2022-12-31T05:55:59.034Z,7.34
2022-12-31T05:59:10.821Z,7.49
2022-12-31T06:02:17.344Z,7.21
2022-12-31T06:05:28.081Z,7.66
2022-12-31T06:08:37.975Z,7.22
2022-12-31T06:11:45.994Z,7.39
2022-12-31T06:14:53.075Z,7.76
2022-12-31T06:18:00.036Z,7.86
2022-12-31T06:21:09.276Z,7.89
2022-12-31T06:24:16.129Z,8.00
2022-12-31T06:27:22.105Z,8.07
2022-12-31T06:30:28.890Z,8.17
2022-12-31T06:33:36.214Z,8.19
2022-12-31T06:36:45.408Z,8.14
2022-12-31T06:39:51.897Z,8.12
2022-12-31T06:43:00.415Z,8.09
2022-12-31T06:46:09.838Z,8.07
2022-12-31T06:49:17.426Z,8.10
2022-12-31T06:52:26.099Z,8.08
2022-12-31T06:55:34.175Z,8.11
2022-12-31T06:58:42.307Z,8.14
2022-12-31T07:02:08.443Z,8.16
2022-12-31T07:05:33.831Z,8.19
2022-12-31T07:08:57.111Z,8.24
2022-12-31T07:12:15.283Z,8.23
2022-12-31T07:15:49.294Z,8.32
2022-12-31T07:19:15.839Z,8.36
2022-12-31T07:22:25.099Z,8.37
2022-12-31T07:25:35.592Z,8.40
2022-12-31T07:29:02.247Z,8.43
2022-12-31T07:32:28.512Z,8.48
2022-12-31T07:35:55.606Z,8.51
2022-12-31T07:39:12.138Z,8.60
2022-12-31T07:42:36.014Z,8.60
2022-12-31T07:45:53.676Z,8.65
2022-12-31T07:49:01.675Z,8.73
2022-12-31T07:52:08.891Z,8.89
2022-12-31T07:55:15.932Z,9.18
2022-12-31T07:58:51.239Z,9.39
2022-12-31T08:02:12.166Z,9.44
2022-12-31T08:05:32.868Z,9.53
2022-12-31T08:08:56.441Z,9.54
2022-12-31T08:12:04.638Z,9.47
2022-12-31T08:15:26.865Z,9.50
2022-12-31T08:18:36.959Z,9.39
2022-12-31T08:22:04.610Z,9.41
2022-12-31T08:25:33.203Z,9.36
2022-12-31T08:29:04.714Z,9.40
2022-12-31T08:32:27.102Z,9.53
2022-12-31T08:36:03.374Z,9.64
2022-12-31T08:39:25.687Z,9.68
2022-12-31T08:42:44.622Z,9.75
2022-12-31T08:45:55.687Z,9.79
2022-12-31T08:49:05.898Z,9.82
2022-12-31T08:52:23.211Z,9.95
2022-12-31T08:55:31.517Z,10.01
2022-12-31T08:58:54.313Z,10.02
2022-12-31T09:02:47.860Z,10.01
2022-12-31T09:06:13.390Z,10.03
2022-12-31T09:09:42.083Z,10.12
2022-12-31T09:13:15.133Z,10.19
2022-12-31T09:16:36.435Z,10.35
2022-12-31T09:19:42.329Z,10.33
2022-12-31T09:22:53.106Z,10.34
2022-12-31T09:26:18.560Z,10.36
2022-12-31T09:29:51.706Z,10.43
2022-12-31T09:33:11.068Z,10.55
2022-12-31T09:36:30.428Z,10.72
2022-12-31T09:39:47.154Z,10.67
2022-12-31T09:43:29.303Z,10.65
2022-12-31T09:47:52.928Z,10.80
2022-12-31T09:51:31.479Z,10.84
2022-12-31T09:54:57.092Z,10.87
2022-12-31T09:58:31.736Z,10.92
2022-12-31T10:02:00.282Z,11.01
2022-12-31T10:05:43.439Z,11.23
2022-12-31T10:09:30.218Z,11.35
2022-12-31T10:13:25.789Z,11.49
2022-12-31T10:17:06.090Z,11.49
2022-12-31T10:20:45.542Z,11.63
2022-12-31T10:24:42.386Z,11.66
2022-12-31T10:28:08.727Z,11.63
2022-12-31T10:31:34.608Z,11.73
2022-12-31T10:35:02.672Z,11.80
2022-12-31T10:38:27.510Z,11.83
2022-12-31T10:42:24.575Z,11.87
2022-12-31T10:46:29.528Z,11.91
2022-12-31T10:50:31.971Z,12.01
2022-12-31T10:54:26.993Z,12.13
2022-12-31T10:58:39.456Z,12.17
2022-12-31T11:02:03.871Z,12.17
2022-12-31T11:06:14.215Z,12.22
2022-12-31T11:10:15.215Z,12.31
2022-12-31T11:14:12.768Z,12.39
2022-12-31T11:17:47.856Z,12.56
2022-12-31T11:21:28.031Z,13.01
2022-12-31T11:25:03.240Z,13.41
2022-12-31T11:29:01.659Z,13.67
2022-12-31T11:32:33.989Z,13.80
2022-12-31T11:36:16.852Z,13.79
2022-12-31T11:39:50.148Z,13.83
2022-12-31T11:43:04.121Z,13.94
2022-12-31T11:46:36.946Z,13.86
2022-12-31T11:50:15.497Z,13.79
2022-12-31T11:54:15.807Z,13.95
2022-12-31T11:57:34.408Z,14.15
2022-12-31T12:00:47.384Z,14.14
2022-12-31T12:03:54.302Z,13.92
2022-12-31T12:07:00.186Z,13.74
2022-12-31T12:10:36.188Z,13.42
2022-12-31T12:13:42.696Z,13.20
2022-12-31T12:16:49.780Z,12.95
2022-12-31T12:19:59.841Z,12.83
2022-12-31T12:23:20.342Z,12.76
2022-12-31T12:26:41.637Z,12.63
2022-12-31T12:29:48.172Z,12.57
2022-12-31T12:32:59.582Z,12.56
2022-12-31T12:36:15.546Z,12.58
2022-12-31T12:39:26.267Z,12.46
2022-12-31T12:42:35.619Z,12.51
2022-12-31T12:45:52.423Z,12.48
2022-12-31T12:49:02.817Z,12.48
2022-12-31T12:52:46.180Z,12.48
2022-12-31T12:56:22.935Z,12.42
2022-12-31T13:00:12.480Z,12.37
2022-12-31T13:04:33.493Z,12.36
2022-12-31T13:07:46.990Z,12.34
2022-12-31T13:11:21.876Z,12.22
2022-12-31T13:14:41.988Z,12.28
2022-12-31T13:18:07.667Z,12.27
2022-12-31T13:21:39.626Z,12.33
2022-12-31T13:25:03.778Z,12.27
2022-12-31T13:28:19.038Z,12.21
2022-12-31T13:31:37.362Z,12.22
2022-12-31T13:34:54.712Z,12.23
2022-12-31T13:38:14.661Z,12.23
2022-12-31T13:41:30.504Z,12.25
2022-12-31T13:44:48.906Z,12.33
2022-12-31T13:48:09.076Z,12.21
2022-12-31T13:51:32.709Z,12.25
2022-12-31T13:54:55.690Z,12.18
2022-12-31T13:58:19.384Z,12.20
2022-12-31T14:01:36.075Z,12.18
2022-12-31T14:04:53.408Z,12.15
2022-12-31T14:08:05.442Z,12.09
2022-12-31T14:11:27.721Z,12.00
2022-12-31T14:14:48.834Z,12.01
2022-12-31T14:18:12.701Z,11.91
2022-12-31T14:21:31.648Z,11.90
2022-12-31T14:24:49.964Z,11.86
2022-12-31T14:28:02.220Z,11.84
2022-12-31T14:31:30.600Z,11.81
2022-12-31T14:34:57.641Z,11.74
2022-12-31T14:38:22.827Z,11.71
2022-12-31T14:42:06.574Z,11.70
2022-12-31T14:45:36.396Z,11.61
2022-12-31T14:49:00.618Z,11.60
2022-12-31T14:52:26.544Z,11.58
2022-12-31T14:55:36.572Z,11.49
2022-12-31T14:58:46.202Z,11.57
2022-12-31T15:01:52.542Z,11.56
2022-12-31T15:05:20.383Z,11.63
2022-12-31T15:08:52.224Z,11.52
2022-12-31T15:12:33.941Z,11.61
2022-12-31T15:16:21.737Z,11.63
2022-12-31T15:20:19.054Z,11.68
2022-12-31T15:23:35.888Z,11.64
2022-12-31T15:26:54.101Z,11.71
2022-12-31T15:30:00.647Z,11.72
2022-12-31T15:33:22.810Z,11.74
2022-12-31T15:36:32.535Z,11.78
2022-12-31T15:39:45.932Z,11.69
2022-12-31T15:43:01.400Z,11.63
2022-12-31T15:46:20.395Z,11.76
2022-12-31T15:49:39.798Z,11.77
2022-12-31T15:52:53.387Z,11.77
2022-12-31T15:56:04.337Z,11.85
2022-12-31T15:59:20.149Z,11.87
2022-12-31T16:02:30.481Z,11.81
2022-12-31T16:05:39.791Z,11.81
2022-12-31T16:08:51.206Z,11.87
2022-12-31T16:12:01.338Z,11.90
2022-12-31T16:15:08.822Z,11.89
2022-12-31T16:18:22.628Z,11.91
2022-12-31T16:21:35.840Z,11.91
2022-12-31T16:25:03.143Z,11.93
2022-12-31T16:28:08.645Z,11.93
2022-12-31T16:31:22.026Z,11.91
2022-12-31T16:34:31.435Z,11.97
2022-12-31T16:37:40.791Z,11.98
2022-12-31T16:41:14.357Z,12.00
2022-12-31T16:44:30.513Z,12.04
2022-12-31T16:47:40.994Z,12.03
2022-12-31T16:50:51.956Z,12.01
2022-12-31T16:54:02.475Z,12.04
2022-12-31T16:57:12.097Z,12.08
2022-12-31T17:00:22.218Z,12.05
2022-12-31T17:03:32.737Z,12.07
2022-12-31T17:06:38.717Z,12.08
2022-12-31T17:09:48.111Z,12.07
2022-12-31T17:16:27.705Z,12.08
2022-12-31T17:19:47.821Z,12.03
2022-12-31T17:23:01.299Z,12.04
2022-12-31T17:26:15.706Z,11.99
2022-12-31T17:29:26.563Z,11.89
2022-12-31T17:32:40.160Z,11.88
2022-12-31T17:35:49.459Z,11.89
2022-12-31T17:38:55.380Z,11.91
2022-12-31T17:42:05.583Z,11.96
2022-12-31T17:45:24.393Z,11.95
2022-12-31T17:48:34.505Z,11.99
2022-12-31T17:51:45.611Z,12.03
2022-12-31T17:54:54.702Z,12.12
2022-12-31T17:58:09.326Z,12.17
2022-12-31T18:01:23.052Z,12.17
2022-12-31T18:04:31.912Z,12.20
2022-12-31T18:07:38.806Z,12.24
2022-12-31T18:10:47.888Z,12.28
2022-12-31T18:13:58.281Z,12.33
2022-12-31T18:17:04.251Z,12.39
2022-12-31T18:20:15.439Z,12.36
2022-12-31T18:23:28.756Z,12.35
2022-12-31T18:26:36.090Z,12.33
2022-12-31T18:29:44.622Z,12.33
2022-12-31T18:32:51.860Z,12.35
2022-12-31T18:36:08.738Z,12.33
2022-12-31T18:39:16.458Z,12.26
2022-12-31T18:42:28.556Z,12.36
2022-12-31T18:45:37.837Z,12.37
2022-12-31T18:48:44.445Z,12.34
2022-12-31T18:51:54.312Z,12.31
2022-12-31T18:55:00.294Z,12.25
2022-12-31T18:58:11.315Z,12.28
2022-12-31T19:01:31.182Z,12.28
2022-12-31T19:04:37.909Z,12.35
2022-12-31T19:07:43.787Z,12.38
2022-12-31T19:10:54.416Z,12.39
2022-12-31T19:14:00.237Z,12.43
2022-12-31T19:20:14.512Z,12.46
2022-12-31T19:23:24.200Z,12.43
2022-12-31T19:26:30.157Z,12.53
2022-12-31T19:29:37.532Z,12.51
2022-12-31T19:32:45.970Z,12.58
2022-12-31T19:35:52.865Z,12.61
2022-12-31T19:38:58.653Z,12.58
2022-12-31T19:42:05.212Z,12.62
2022-12-31T19:45:18.249Z,12.61
2022-12-31T19:48:32.710Z,12.58
2022-12-31T19:51:39.043Z,12.56
2022-12-31T19:54:45.614Z,12.58
2022-12-31T19:57:52.648Z,12.54
2022-12-31T20:01:03.433Z,12.48
2022-12-31T20:04:11.948Z,12.43
2022-12-31T20:07:23.605Z,12.42
2022-12-31T20:10:32.719Z,12.40
2022-12-31T20:13:40.374Z,12.37
2022-12-31T20:16:47.014Z,12.37
2022-12-31T20:19:57.433Z,12.38
2022-12-31T20:23:06.552Z,12.36
2022-12-31T20:26:15.353Z,12.37
2022-12-31T20:29:21.956Z,12.39
2022-12-31T20:32:28.681Z,12.37
2022-12-31T20:35:37.071Z,12.36
2022-12-31T20:38:44.007Z,12.36
2022-12-31T20:41:50.610Z,12.33
2022-12-31T20:44:57.311Z,12.31
2022-12-31T20:48:03.139Z,12.27
2022-12-31T20:51:12.740Z,12.21
2022-12-31T20:54:18.729Z,12.13
2022-12-31T20:57:30.171Z,12.05
2022-12-31T21:00:39.599Z,12.03
2022-12-31T21:04:06.718Z,12.00
2022-12-31T21:07:15.685Z,11.92
2022-12-31T21:10:22.298Z,11.93
2022-12-31T21:13:28.280Z,11.97
2022-12-31T21:16:35.800Z,11.94
2022-12-31T21:19:41.825Z,11.92
2022-12-31T21:22:52.068Z,11.85
2022-12-31T21:25:57.906Z,11.79
2022-12-31T21:29:04.844Z,11.75
2022-12-31T21:32:10.687Z,11.72
2022-12-31T21:38:47.623Z,11.67
2022-12-31T21:41:54.394Z,11.66
2022-12-31T21:45:00.567Z,11.68
2022-12-31T21:48:25.124Z,11.71
2022-12-31T21:51:32.049Z,11.71
2022-12-31T21:54:53.790Z,11.78
2022-12-31T21:58:25.173Z,11.77
2022-12-31T22:01:39.139Z,11.82
2022-12-31T22:05:02.341Z,11.79
2022-12-31T22:08:09.898Z,11.77
2022-12-31T22:11:21.019Z,11.75
2022-12-31T22:14:27.774Z,11.74
2022-12-31T22:17:33.673Z,11.75
2022-12-31T22:20:41.792Z,11.73
2022-12-31T22:23:48.772Z,11.74
2022-12-31T22:26:59.824Z,11.74
2022-12-31T22:30:25.651Z,11.73
2022-12-31T22:33:32.334Z,11.69
2022-12-31T22:36:38.314Z,11.63
2022-12-31T22:39:45.138Z,11.64
2022-12-31T22:42:53.732Z,11.71
2022-12-31T22:46:00.520Z,11.70
2022-12-31T22:49:08.038Z,11.68
2022-12-31T22:52:14.754Z,11.78
2022-12-31T22:55:20.838Z,11.79
2022-12-31T22:58:30.526Z,11.82
2022-12-31T23:01:37.034Z,11.83
2022-12-31T23:04:43.768Z,11.86
2022-12-31T23:07:49.631Z,11.89
2022-12-31T23:11:05.813Z,11.91
2022-12-31T23:14:32.657Z,11.85
2022-12-31T23:17:51.709Z,11.83
2022-12-31T23:21:09.825Z,11.81
2022-12-31T23:24:22.773Z,11.77
2022-12-31T23:27:32.039Z,11.68
2022-12-31T23:30:42.366Z,11.69
2022-12-31T23:33:48.327Z,11.71
2022-12-31T23:36:54.963Z,11.66
2022-12-31T23:40:00.927Z,11.67
2022-12-31T23:43:11.378Z,11.73
2022-12-31T23:46:20.888Z,11.74
2022-12-31T23:49:27.775Z,11.76
2022-12-31T23:52:33.736Z,11.66
2022-12-31T23:55:40.328Z,11.62
2022-12-31T23:58:46.559Z,11.60
